createdAt,value
2019-01-04T00:02:51.352Z,0.80
2019-01-04T00:05:50.598Z,0.80
2019-01-04T00:08:30.239Z,0.80
2019-01-04T00:11:15.963Z,0.80
2019-01-04T00:17:20.634Z,0.80
2019-01-04T00:20:12.937Z,0.80
2019-01-04T00:22:51.408Z,0.80
2019-01-04T00:25:31.069Z,0.80
2019-01-04T00:31:25.063Z,0.90
2019-01-04T00:40:54.067Z,1.00
2019-01-04T00:43:18.287Z,1.00
2019-01-04T00:46:18.343Z,1.00
2019-01-04T00:49:00.518Z,1.00
2019-01-04T00:59:16.086Z,0.90
2019-01-04T01:02:18.590Z,0.90
2019-01-04T01:05:22.726Z,0.90
2019-01-04T01:11:53.484Z,0.80
2019-01-04T01:18:13.256Z,0.70
2019-01-04T01:21:26.731Z,0.60
2019-01-04T01:24:23.886Z,0.60
2019-01-04T01:38:00.777Z,0.30
2019-01-04T01:40:50.519Z,0.30
2019-01-04T01:51:05.853Z,0.20
2019-01-04T01:56:45.074Z,0.20
2019-01-04T02:02:45.140Z,0.20
2019-01-04T02:05:21.125Z,0.30
2019-01-04T02:08:22.549Z,0.40
2019-01-04T02:11:30.219Z,0.50
2019-01-04T02:20:15.721Z,0.60
2019-01-04T02:23:18.257Z,0.60
2019-01-04T02:29:18.782Z,0.60
2019-01-04T02:32:18.592Z,0.60
2019-01-04T02:35:24.035Z,0.60
2019-01-04T02:43:52.058Z,0.60
2019-01-04T02:44:17.325Z,0.50
2019-01-04T02:46:36.657Z,0.60
2019-01-04T02:50:16.519Z,0.50
2019-01-04T02:52:15.926Z,0.50
2019-01-04T03:00:53.192Z,0.40
2019-01-04T03:06:16.741Z,0.40
2019-01-04T03:08:49.889Z,0.50
2019-01-04T03:11:25.561Z,0.40
2019-01-04T03:14:21.441Z,0.50
2019-01-04T03:17:14.924Z,0.50
2019-01-04T03:19:56.774Z,0.50
2019-01-04T03:23:06.023Z,0.50
2019-01-04T03:25:35.498Z,0.50
2019-01-04T03:28:44.146Z,0.50
2019-01-04T03:31:50.960Z,0.60
2019-01-04T03:40:20.407Z,0.70
2019-01-04T03:42:54.797Z,0.80
2019-01-04T03:45:51.414Z,0.90
2019-01-04T03:48:52.005Z,1.00
2019-01-04T03:51:23.453Z,1.20
2019-01-04T03:54:18.249Z,1.30
2019-01-04T03:56:55.107Z,1.40
2019-01-04T03:59:23.868Z,1.40
2019-01-04T04:02:27.435Z,1.50
2019-01-04T04:04:56.166Z,1.60
2019-01-04T04:07:48.948Z,1.60
2019-01-04T04:10:30.037Z,1.70
2019-01-04T04:13:21.177Z,1.70
2019-01-04T04:16:23.735Z,1.70
2019-01-04T04:20:28.145Z,1.70
2019-01-04T04:21:57.762Z,1.80
2019-01-04T04:25:24.371Z,1.80
2019-01-04T04:28:25.983Z,1.80
2019-01-04T04:31:50.029Z,1.90
2019-01-04T04:47:50.202Z,2.20
2019-01-04T04:50:26.173Z,2.30
2019-01-04T04:53:20.589Z,2.30
2019-01-04T04:56:21.571Z,2.40
2019-01-04T04:59:55.995Z,2.50
2019-01-04T05:02:58.889Z,2.50
2019-01-04T05:06:14.664Z,2.50
2019-01-04T05:08:22.089Z,2.60
2019-01-04T05:10:52.891Z,2.60
2019-01-04T05:14:02.315Z,2.60
2019-01-04T05:16:54.193Z,2.60
2019-01-04T05:19:42.231Z,2.70
2019-01-04T05:23:00.159Z,2.70
2019-01-04T05:25:46.737Z,2.70
2019-01-04T05:31:49.621Z,2.80
2019-01-04T05:34:22.957Z,2.80
2019-01-04T05:38:17.751Z,2.80
2019-01-04T05:39:56.267Z,2.70
2019-01-04T05:43:20.240Z,2.80
2019-01-04T05:45:51.362Z,2.70
2019-01-04T05:48:27.293Z,2.70
2019-01-04T05:51:16.314Z,2.80
2019-01-04T05:58:51.172Z,2.80
2019-01-04T06:00:19.514Z,2.80
2019-01-04T06:02:58.358Z,2.80
2019-01-04T06:05:53.500Z,2.80
2019-01-04T06:08:47.360Z,2.80
2019-01-04T06:11:16.950Z,2.80
2019-01-04T06:13:46.584Z,2.80
2019-01-04T06:16:16.131Z,2.80
2019-01-04T06:18:45.439Z,2.80
2019-01-04T06:21:14.570Z,2.70
2019-01-04T06:23:44.302Z,2.60
2019-01-04T06:26:13.597Z,2.60
2019-01-04T06:28:43.145Z,2.50
2019-01-04T06:31:12.405Z,2.40
2019-01-04T06:33:41.743Z,2.30
2019-01-04T06:36:11.965Z,2.20
2019-01-04T06:38:41.566Z,2.20
2019-01-04T06:41:11.618Z,2.20
2019-01-04T06:43:40.810Z,2.30
2019-01-04T06:46:10.088Z,2.40
2019-01-04T06:48:39.710Z,2.40
2019-01-04T06:51:08.844Z,2.50
2019-01-04T06:53:38.365Z,2.50
2019-01-04T06:56:08.494Z,2.60
2019-01-04T06:58:37.972Z,2.60
2019-01-04T07:01:07.670Z,2.70
2019-01-04T07:03:37.063Z,2.70
2019-01-04T07:06:06.311Z,2.70
2019-01-04T07:08:36.112Z,2.60
2019-01-04T07:11:05.251Z,2.50
2019-01-04T07:13:34.482Z,2.50
2019-01-04T07:16:03.959Z,2.50
2019-01-04T07:18:32.486Z,2.50
2019-01-04T07:21:02.188Z,2.60
2019-01-04T07:23:31.356Z,2.60
2019-01-04T07:26:00.511Z,2.60
2019-01-04T07:28:29.695Z,2.70
2019-01-04T07:30:57.902Z,2.60
2019-01-04T07:33:26.058Z,2.70
2019-01-04T07:35:55.493Z,2.70
2019-01-04T07:38:24.824Z,2.70
2019-01-04T07:40:54.290Z,2.70
2019-01-04T07:43:23.798Z,2.80
2019-01-04T07:45:53.302Z,2.80
2019-01-04T07:48:22.963Z,2.90
2019-01-04T07:50:52.119Z,2.90
2019-01-04T07:53:21.232Z,2.90
2019-01-04T07:55:50.435Z,2.90
2019-01-04T07:58:20.123Z,3.00
2019-01-04T08:00:49.363Z,3.10
2019-01-04T08:03:23.387Z,3.20
2019-01-04T08:05:54.498Z,3.20
2019-01-04T08:08:23.992Z,3.30
2019-01-04T08:10:53.328Z,3.40
2019-01-04T08:13:23.057Z,3.00
2019-01-04T08:15:52.273Z,3.50
2019-01-04T08:18:22.074Z,3.50
2019-01-04T08:20:57.462Z,3.50
2019-01-04T08:23:26.654Z,3.60
2019-01-04T08:25:55.854Z,3.50
2019-01-04T08:28:25.418Z,3.50
2019-01-04T08:30:54.931Z,3.50
2019-01-04T08:33:24.415Z,3.50
2019-01-04T08:35:53.686Z,3.40
2019-01-04T08:38:22.978Z,3.40
2019-01-04T08:40:52.120Z,3.40
2019-01-04T08:43:56.129Z,3.40
2019-01-04T08:49:21.262Z,3.40
2019-01-04T08:52:13.611Z,3.40
2019-01-04T08:55:19.376Z,3.30
2019-01-04T08:58:13.049Z,3.30
2019-01-04T09:08:15.449Z,3.40
2019-01-04T09:10:48.141Z,3.40
2019-01-04T09:13:20.484Z,3.50
2019-01-04T09:15:50.885Z,3.50
2019-01-04T09:18:20.564Z,3.60
2019-01-04T09:20:50.011Z,3.60
2019-01-04T09:23:19.729Z,3.70
2019-01-04T09:25:53.171Z,3.70
2019-01-04T09:28:23.134Z,3.80
2019-01-04T09:30:52.716Z,3.80
2019-01-04T09:33:22.602Z,3.90
2019-01-04T09:35:55.412Z,3.90
2019-01-04T09:38:26.114Z,3.90
2019-01-04T09:41:36.625Z,4.00
2019-01-04T09:44:06.240Z,4.00
2019-01-04T09:46:35.739Z,4.10
2019-01-04T09:49:09.310Z,4.10
2019-01-04T09:51:39.071Z,4.20
2019-01-04T09:54:08.898Z,4.20
2019-01-04T09:59:41.793Z,4.20
2019-01-04T10:02:16.886Z,4.30
2019-01-04T10:04:48.033Z,4.30
2019-01-04T10:07:17.796Z,4.40
2019-01-04T10:09:49.886Z,4.40
2019-01-04T10:12:23.742Z,4.40
2019-01-04T10:14:53.135Z,4.40
2019-01-04T10:17:22.804Z,4.40
2019-01-04T10:19:52.938Z,4.50
2019-01-04T10:22:22.228Z,4.50
2019-01-04T10:24:51.659Z,4.50
2019-01-04T10:27:21.095Z,4.50
2019-01-04T10:29:50.975Z,4.50
2019-01-04T10:32:22.975Z,4.50
2019-01-04T10:34:54.930Z,4.60
2019-01-04T10:37:27.456Z,4.60
2019-01-04T10:39:56.982Z,4.60
2019-01-04T10:42:26.940Z,4.60
2019-01-04T10:44:56.817Z,4.50
2019-01-04T10:48:15.831Z,4.50
2019-01-04T10:50:48.192Z,4.50
2019-01-04T10:53:18.001Z,4.60
2019-01-04T10:55:47.632Z,4.60
2019-01-04T10:58:17.399Z,4.50
2019-01-04T11:00:47.104Z,4.50
2019-01-04T11:03:16.763Z,4.50
2019-01-04T11:05:49.140Z,4.50
2019-01-04T11:08:20.242Z,4.60
2019-01-04T11:10:49.469Z,4.60
2019-01-04T11:13:18.658Z,4.60
2019-01-04T11:15:48.416Z,4.60
2019-01-04T11:18:32.570Z,4.70
2019-01-04T11:21:18.867Z,4.70
2019-01-04T11:24:43.567Z,4.70
2019-01-04T11:27:51.352Z,4.70
2019-01-04T11:34:18.707Z,4.80
2019-01-04T11:37:29.497Z,4.80
2019-01-04T11:44:06.044Z,4.80
2019-01-04T11:46:46.434Z,4.80
2019-01-04T11:49:34.496Z,4.80
2019-01-04T11:52:32.481Z,4.80
2019-01-04T11:55:01.693Z,4.70
2019-01-04T11:57:31.286Z,4.70
2019-01-04T12:00:00.619Z,4.70
2019-01-04T12:02:30.032Z,4.70
2019-01-04T12:05:01.775Z,4.60
2019-01-04T12:07:31.148Z,4.60
2019-01-04T12:10:00.620Z,4.60
2019-01-04T12:12:33.694Z,4.60
2019-01-04T12:15:02.944Z,4.50
2019-01-04T12:17:34.061Z,4.50
2019-01-04T12:20:03.604Z,4.40
2019-01-04T12:22:33.424Z,4.40
2019-01-04T12:25:04.622Z,4.40
2019-01-04T12:27:33.894Z,4.40
2019-01-04T12:30:03.100Z,4.40
2019-01-04T12:32:32.468Z,4.40
2019-01-04T12:35:02.349Z,4.40
2019-01-04T12:37:31.841Z,4.40
2019-01-04T12:40:01.272Z,4.40
2019-01-04T12:42:30.533Z,4.40
2019-01-04T12:45:00.045Z,4.40
2019-01-04T12:47:29.255Z,4.40
2019-01-04T12:49:59.198Z,4.50
2019-01-04T12:52:28.621Z,4.50
2019-01-04T12:54:57.797Z,4.50
2019-01-04T12:57:26.969Z,4.50
2019-01-04T12:59:56.245Z,4.50
2019-01-04T13:02:25.429Z,4.50
2019-01-04T13:04:54.651Z,4.50
2019-01-04T13:07:23.829Z,4.50
2019-01-04T13:09:52.978Z,4.50
2019-01-04T13:12:22.400Z,4.60
2019-01-04T13:14:51.862Z,4.50
2019-01-04T13:17:21.150Z,4.50
2019-01-04T13:19:50.437Z,4.60
2019-01-04T13:22:20.981Z,4.60
2019-01-04T13:24:50.337Z,4.60
2019-01-04T13:27:23.001Z,4.60
2019-01-04T13:29:52.440Z,4.60
2019-01-04T13:32:21.922Z,4.60
2019-01-04T13:34:51.430Z,4.60
2019-01-04T13:37:45.958Z,4.70
2019-01-04T13:40:14.952Z,4.60
2019-01-04T13:42:44.219Z,4.60
2019-01-04T13:45:14.384Z,4.60
2019-01-04T13:47:46.532Z,4.70
2019-01-04T13:50:15.905Z,4.70
2019-01-04T13:52:45.227Z,4.70
2019-01-04T13:55:14.496Z,4.70
2019-01-04T13:57:45.944Z,4.70
2019-01-04T14:00:15.347Z,4.70
2019-01-04T14:02:48.268Z,4.70
2019-01-04T14:05:17.752Z,4.70
2019-01-04T14:07:47.116Z,4.70
2019-01-04T14:10:17.269Z,4.70
2019-01-04T14:12:47.999Z,4.70
2019-01-04T14:15:17.621Z,4.80
2019-01-04T14:17:46.851Z,4.90
2019-01-04T14:20:15.995Z,4.80
2019-01-04T14:22:45.220Z,4.90
2019-01-04T14:25:14.488Z,4.90
2019-01-04T14:27:43.660Z,5.00
2019-01-04T14:30:13.476Z,5.00
2019-01-04T14:32:42.541Z,5.00
2019-01-04T14:35:12.047Z,5.00
2019-01-04T14:37:41.282Z,5.00
2019-01-04T14:40:11.399Z,5.00
2019-01-04T14:42:40.665Z,5.00
2019-01-04T14:45:09.901Z,5.00
2019-01-04T14:47:39.148Z,5.00
2019-01-04T14:50:09.632Z,5.00
2019-01-04T14:52:39.228Z,5.00
2019-01-04T14:55:08.486Z,5.00
2019-01-04T14:57:37.792Z,5.00
2019-01-04T15:00:10.248Z,5.00
2019-01-04T15:02:42.353Z,5.00
2019-01-04T15:05:11.860Z,5.00
2019-01-04T15:07:41.049Z,5.00
2019-01-04T15:10:13.105Z,4.90
2019-01-04T15:12:42.515Z,4.90
2019-01-04T15:15:11.854Z,4.90
2019-01-04T15:17:41.511Z,4.90
2019-01-04T15:20:11.336Z,4.90
2019-01-04T15:22:41.499Z,4.90
2019-01-04T15:25:11.041Z,4.90
2019-01-04T15:27:41.177Z,4.80
2019-01-04T15:30:11.848Z,4.80
2019-01-04T15:32:41.230Z,4.80
2019-01-04T15:35:10.689Z,4.80
2019-01-04T15:37:40.170Z,4.90
2019-01-04T15:40:09.777Z,4.90
2019-01-04T15:42:38.926Z,4.90
2019-01-04T15:45:09.508Z,4.90
2019-01-04T15:47:38.705Z,4.90
2019-01-04T15:50:13.415Z,5.00
2019-01-04T15:52:42.941Z,5.00
2019-01-04T15:55:12.748Z,5.00
2019-01-04T15:57:41.943Z,5.00
2019-01-04T16:00:12.794Z,5.00
2019-01-04T16:02:41.995Z,5.00
2019-01-04T16:05:11.571Z,5.00
2019-01-04T16:07:40.766Z,5.00
2019-01-04T16:10:10.518Z,6.40
2019-01-04T16:12:39.805Z,5.10
2019-01-04T16:15:09.788Z,5.00
2019-01-04T16:17:39.047Z,5.00
2019-01-04T16:20:09.401Z,5.10
2019-01-04T16:22:38.856Z,5.10
2019-01-04T16:25:08.264Z,5.00
2019-01-04T16:27:37.639Z,5.10
2019-01-04T16:30:09.513Z,5.10
2019-01-04T16:32:38.673Z,5.10
2019-01-04T16:35:08.232Z,5.10
2019-01-04T16:37:37.464Z,5.10
2019-01-04T16:40:07.820Z,5.10
2019-01-04T16:42:37.005Z,5.10
2019-01-04T16:45:06.578Z,5.20
2019-01-04T16:47:35.830Z,5.20
2019-01-04T16:50:17.532Z,5.20
2019-01-04T16:52:47.003Z,5.20
2019-01-04T16:55:16.288Z,5.20
2019-01-04T16:57:45.715Z,5.20
2019-01-04T17:00:15.295Z,5.20
2019-01-04T17:02:44.624Z,5.20
2019-01-04T17:05:13.912Z,5.20
2019-01-04T17:07:43.384Z,5.20
2019-01-04T17:10:13.061Z,5.20
2019-01-04T17:12:42.572Z,5.30
2019-01-04T17:15:11.776Z,5.30
2019-01-04T17:17:40.901Z,5.30
2019-01-04T17:20:10.110Z,5.30
2019-01-04T17:22:39.292Z,5.30
2019-01-04T17:25:09.093Z,5.30
2019-01-04T17:27:38.209Z,5.30
2019-01-04T17:30:08.687Z,5.30
2019-01-04T17:32:37.808Z,5.30
2019-01-04T17:35:07.201Z,5.30
2019-01-04T17:37:36.753Z,5.30
2019-01-04T17:40:08.135Z,5.30
2019-01-04T17:42:38.466Z,5.30
2019-01-04T17:45:08.378Z,5.30
2019-01-04T17:47:37.588Z,5.30
2019-01-04T17:50:08.385Z,5.30
2019-01-04T17:52:37.936Z,5.30
2019-01-04T17:55:07.525Z,5.30
2019-01-04T17:57:36.840Z,5.40
2019-01-04T18:00:07.843Z,5.40
2019-01-04T18:02:37.324Z,5.30
2019-01-04T18:05:06.902Z,5.40
2019-01-04T18:07:36.176Z,5.40
2019-01-04T18:10:05.736Z,5.40
2019-01-04T18:12:35.325Z,5.40
2019-01-04T18:15:04.971Z,5.40
2019-01-04T18:17:34.173Z,5.40
2019-01-04T18:20:03.679Z,5.50
2019-01-04T18:22:32.907Z,5.50
2019-01-04T18:25:02.502Z,5.50
2019-01-04T18:27:32.313Z,5.50
2019-01-04T18:30:01.863Z,5.50
2019-01-04T18:32:31.413Z,5.50
2019-01-04T18:35:00.928Z,5.50
2019-01-04T18:37:30.352Z,5.50
2019-01-04T18:40:00.000Z,5.50
2019-01-04T18:42:29.606Z,5.50
2019-01-04T18:44:59.365Z,5.60
2019-01-04T18:47:29.509Z,5.60
2019-01-04T18:49:58.893Z,5.60
2019-01-04T18:52:28.520Z,5.60
2019-01-04T18:54:57.984Z,5.60
2019-01-04T18:57:27.655Z,5.60
2019-01-04T18:59:57.039Z,5.60
2019-01-04T19:02:26.589Z,5.70
2019-01-04T19:04:56.306Z,5.70
2019-01-04T19:07:25.603Z,5.70
2019-01-04T19:09:54.953Z,5.70
2019-01-04T19:12:24.759Z,5.70
2019-01-04T19:14:58.598Z,5.70
2019-01-04T19:17:28.102Z,5.80
2019-01-04T19:20:00.888Z,5.70
2019-01-04T19:22:34.044Z,5.80
2019-01-04T19:25:04.709Z,5.80
2019-01-04T19:27:34.281Z,5.80
